Time;durP1;ratioP1;P1;durP2;ratioP2;P2;SDS_P1;SDS_P2;PMS_P1;PMS_P2;Temp;Humidity;BMP_temperature;BMP_pressure;BME280_temperature;BME280_humidity;BME280_pressure;Samples;Min_cycle;Max_cycle;Signal;HPM_P1;HPM_P2
2023/12/17 00:02:03;;;;;;;42.17;22.00;;;8.50;99.90;;;;;;5093268;28;20035;-72
2023/12/17 00:04:29;;;;;;;39.50;20.73;;;8.60;99.90;;;;;;5093109;28;20028;-72
2023/12/17 00:06:54;;;;;;;40.35;20.45;;;8.60;99.90;;;;;;5093281;28;20107;-72
2023/12/17 00:09:22;;;;;;;35.45;20.75;;;;;;;;;;5093097;28;20025;-72
2023/12/17 00:11:48;;;;;;;38.22;20.70;;;8.60;99.90;;;;;;5092751;28;20028;-72
2023/12/17 00:14:14;;;;;;;39.65;19.95;;;8.60;99.90;;;;;;5093134;28;20481;-72
2023/12/17 00:16:40;;;;;;;37.97;19.83;;;8.60;99.90;;;;;;5093187;28;20082;-72
2023/12/17 00:19:06;;;;;;;35.33;19.05;;;8.60;99.90;;;;;;5093206;28;20478;-72
2023/12/17 00:21:32;;;;;;;33.00;18.98;;;8.60;99.90;;;;;;5093186;28;20032;-73
2023/12/17 00:23:58;;;;;;;32.97;18.88;;;8.60;99.90;;;;;;5093083;28;20431;-72
2023/12/17 00:26:23;;;;;;;38.20;19.95;;;8.60;99.90;;;;;;5092592;28;20120;-72
2023/12/17 00:28:49;;;;;;;32.80;18.92;;;8.60;99.90;;;;;;5092595;28;20074;-72
2023/12/17 00:31:14;;;;;;;32.53;19.20;;;8.60;99.90;;;;;;5092620;28;20466;-72
2023/12/17 00:33:40;;;;;;;33.42;19.00;;;8.60;99.90;;;;;;5092947;28;20024;-72
2023/12/17 00:36:06;;;;;;;35.00;20.08;;;8.60;99.90;;;;;;5092699;28;20068;-72
2023/12/17 00:38:31;;;;;;;35.58;20.48;;;8.60;99.90;;;;;;5093146;28;20035;-72
2023/12/17 00:40:57;;;;;;;33.38;18.80;;;8.60;99.90;;;;;;5092513;28;20016;-72
2023/12/17 00:43:22;;;;;;;38.30;19.90;;;8.60;99.90;;;;;;5092760;28;20028;-72
2023/12/17 00:45:48;;;;;;;35.10;19.75;;;8.60;99.90;;;;;;5095771;28;20394;-72
2023/12/17 00:48:13;;;;;;;33.13;19.08;;;8.60;99.90;;;;;;5096271;28;20024;-72
2023/12/17 00:50:39;;;;;;;35.38;18.95;;;8.70;99.90;;;;;;5096484;28;20024;-72
2023/12/17 00:53:06;;;;;;;33.13;18.75;;;;;;;;;;5096554;28;20031;-71
2023/12/17 00:55:32;;;;;;;31.52;18.13;;;8.80;99.90;;;;;;5096382;28;20478;-72
2023/12/17 00:58:00;;;;;;;37.97;19.90;;;;;;;;;;5096402;28;20114;-71
2023/12/17 01:00:26;;;;;;;32.63;19.08;;;8.70;99.90;;;;;;5096457;28;20032;-72
2023/12/17 01:02:53;;;;;;;31.35;16.63;;;;;;;;;;5096287;28;20142;-73
2023/12/17 01:05:21;;;;;;;30.35;18.75;;;;;;;;;;5095980;28;20024;-72
2023/12/17 01:07:50;;;;;;;32.17;17.70;;;;;;;;;;5096128;28;20392;-72
2023/12/17 01:10:18;;;;;;;35.60;18.98;;;;;;;;;;5095668;28;20023;-72
2023/12/17 01:12:43;;;;;;;30.67;17.63;;;8.60;99.90;;;;;;5096018;28;20032;-72
2023/12/17 01:15:10;;;;;;;33.45;18.17;;;8.60;99.90;;;;;;5096022;28;20035;-71
2023/12/17 01:17:36;;;;;;;31.23;18.20;;;8.60;99.90;;;;;;5095935;28;20486;-72
2023/12/17 01:20:04;;;;;;;42.45;19.52;;;;;;;;;;5096071;28;20059;-72
2023/12/17 01:22:32;;;;;;;32.22;18.05;;;;;;;;;;5096043;28;20032;-71
2023/12/17 01:25:00;;;;;;;33.97;18.13;;;;;;;;;;5095668;28;20028;-72
2023/12/17 01:27:27;;;;;;;32.65;19.63;;;;;;;;;;5095988;28;20028;-72
2023/12/17 01:29:53;;;;;;;36.88;20.45;;;8.60;99.90;;;;;;5095634;28;20047;-72
2023/12/17 01:32:21;;;;;;;38.05;21.00;;;;;;;;;;5095583;28;20036;-72
2023/12/17 01:34:49;;;;;;;34.92;20.00;;;;;;;;;;5095212;28;20163;-72
2023/12/17 01:37:17;;;;;;;38.85;20.92;;;;;;;;;;5095258;28;20109;-72
2023/12/17 01:39:42;;;;;;;39.10;21.15;;;8.60;99.90;;;;;;5095597;28;20066;-71
2023/12/17 01:42:10;;;;;;;34.90;20.13;;;;;;;;;;5095528;28;20040;-72
2023/12/17 01:44:38;;;;;;;39.67;21.88;;;;;;;;;;5095025;28;20398;-72
2023/12/17 01:47:06;;;;;;;37.33;21.08;;;;;;;;;;5095417;28;20035;-72
2023/12/17 01:49:33;;;;;;;39.20;21.27;;;;;;;;;;5095108;28;20385;-73
2023/12/17 01:51:59;;;;;;;36.50;20.08;;;8.60;99.90;;;;;;5095271;28;20020;-73
2023/12/17 01:54:25;;;;;;;41.85;22.42;;;;;;;;;;5095162;28;20024;-73
2023/12/17 01:56:51;;;;;;;38.22;22.40;;;8.60;99.90;;;;;;5095155;28;20501;-72
2023/12/17 01:59:16;;;;;;;36.60;21.65;;;8.60;99.90;;;;;;5095143;28;20032;-72
2023/12/17 02:01:46;;;;;;;37.45;22.20;;;;;;;;;;5095140;28;20389;-72
2023/12/17 02:04:12;;;;;;;35.88;20.95;;;;;;;;;;5095003;28;20396;-72
2023/12/17 02:06:38;;;;;;;42.10;22.33;;;;;;;;;;5095000;28;20473;-72
2023/12/17 02:09:04;;;;;;;42.67;23.48;;;;;;;;;;5095053;28;20031;-73
2023/12/17 02:11:30;;;;;;;38.63;21.42;;;8.70;99.90;;;;;;5095076;28;20032;-73
2023/12/17 02:13:58;;;;;;;43.88;22.52;;;;;;;;;;5094973;28;20019;-72
2023/12/17 02:16:24;;;;;;;42.90;21.55;;;;;;;;;;5094890;28;20496;-72
2023/12/17 02:18:49;;;;;;;41.40;23.75;;;8.70;99.90;;;;;;5094825;28;20031;-72
2023/12/17 02:21:15;;;;;;;41.80;22.05;;;8.70;99.90;;;;;;5094775;28;20067;-72
2023/12/17 02:23:40;;;;;;;40.92;21.90;;;8.70;99.90;;;;;;5094643;28;20032;-72
2023/12/17 02:26:06;;;;;;;39.30;22.00;;;8.70;99.90;;;;;;5094387;28;20035;-72
2023/12/17 02:28:32;;;;;;;45.58;23.55;;;;;;;;;;5094647;28;20059;-72
2023/12/17 02:31:00;;;;;;;45.33;22.83;;;;;;;;;;5094509;28;20028;-73
2023/12/17 02:33:27;;;;;;;40.35;23.65;;;;;;;;;;5094401;28;20043;-72
2023/12/17 02:35:55;;;;;;;39.20;21.75;;;;;;;;;;5094360;28;20477;-72
2023/12/17 02:38:23;;;;;;;40.08;21.83;;;;;;;;;;5094400;28;20358;-72
2023/12/17 02:40:49;;;;;;;38.55;22.20;;;8.60;99.90;;;;;;5094394;28;20501;-72
2023/12/17 02:43:14;;;;;;;41.35;23.05;;;8.60;99.90;;;;;;5094156;28;20151;-72
2023/12/17 02:45:40;;;;;;;37.85;21.55;;;8.60;99.90;;;;;;5093756;28;20032;-72
2023/12/17 02:48:05;;;;;;;36.05;20.73;;;8.60;99.90;;;;;;5094208;28;20451;-72
2023/12/17 02:50:31;;;;;;;42.47;20.80;;;;;;;;;;5094110;28;20385;-73
2023/12/17 02:52:57;;;;;;;39.58;22.67;;;;;;;;;;5094219;28;20435;-72
2023/12/17 02:55:23;;;;;;;39.88;21.80;;;;;;;;;;5094097;28;20036;-72
2023/12/17 02:57:49;;;;;;;38.72;22.60;;;;;;;;;;5094115;28;20036;-72
2023/12/17 03:00:15;;;;;;;43.35;22.33;;;8.70;99.90;;;;;;5094050;28;20123;-72
2023/12/17 03:02:40;;;;;;;37.03;21.60;;;8.60;99.90;;;;;;5093629;28;20086;-72
2023/12/17 03:05:06;;;;;;;37.50;21.52;;;8.60;99.90;;;;;;5093785;28;20028;-72
2023/12/17 03:07:32;;;;;;;36.58;21.77;;;8.60;99.90;;;;;;5093649;28;20481;-72
2023/12/17 03:09:57;;;;;;;37.25;21.33;;;8.60;99.90;;;;;;5093693;28;20024;-72
2023/12/17 03:12:23;;;;;;;37.00;20.52;;;8.60;99.90;;;;;;5093843;28;20032;-73
2023/12/17 03:14:49;;;;;;;40.75;20.92;;;8.60;99.90;;;;;;5093846;28;20036;-72
2023/12/17 03:17:14;;;;;;;45.53;23.52;;;8.50;99.90;;;;;;5093742;28;20161;-72
2023/12/17 03:19:40;;;;;;;41.50;21.13;;;8.50;99.90;;;;;;5093775;28;20375;-72
2023/12/17 03:22:05;;;;;;;41.28;22.52;;;8.60;99.90;;;;;;5093758;28;20032;-72
2023/12/17 03:24:31;;;;;;;40.92;22.48;;;8.60;99.90;;;;;;5093765;28;20052;-72
2023/12/17 03:26:56;;;;;;;39.45;20.67;;;8.50;99.90;;;;;;5093468;28;20016;-72
2023/12/17 03:29:22;;;;;;;39.60;20.85;;;8.60;99.90;;;;;;5093582;28;20024;-72
2023/12/17 03:31:48;;;;;;;39.85;21.58;;;8.50;99.90;;;;;;5093517;28;20024;-72
2023/12/17 03:34:13;;;;;;;39.08;21.48;;;8.60;99.90;;;;;;5093173;28;20020;-72
2023/12/17 03:36:39;;;;;;;39.78;21.40;;;8.60;99.90;;;;;;5093229;28;20056;-72
2023/12/17 03:39:05;;;;;;;42.38;22.52;;;8.60;99.90;;;;;;5093517;28;20041;-72
2023/12/17 03:41:31;;;;;;;37.38;20.73;;;8.50;99.90;;;;;;5093159;28;20027;-72
2023/12/17 03:43:57;;;;;;;39.08;21.05;;;8.50;99.90;;;;;;5093430;28;20482;-72
2023/12/17 03:46:25;;;;;;;39.97;21.65;;;8.60;99.90;;;;;;5093095;28;20028;-72
2023/12/17 03:48:51;;;;;;;39.83;20.60;;;8.50;99.90;;;;;;5093341;28;20024;-72
2023/12/17 03:51:17;;;;;;;38.20;21.23;;;;;;;;;;5093392;28;20359;-72
2023/12/17 03:53:43;;;;;;;40.05;21.52;;;;;;;;;;5093384;28;20055;-73
2023/12/17 03:56:10;;;;;;;43.65;22.23;;;8.70;99.90;;;;;;5092989;28;20075;-72
2023/12/17 03:58:37;;;;;;;42.42;22.30;;;8.60;99.90;;;;;;5093258;28;20024;-72
2023/12/17 04:01:04;;;;;;;39.42;20.85;;;8.60;99.90;;;;;;5093349;28;20032;-72
2023/12/17 04:03:29;;;;;;;41.38;20.70;;;8.60;99.90;;;;;;5093401;28;20055;-72
2023/12/17 04:05:56;;;;;;;39.05;22.17;;;;;;;;;;5093079;28;20059;-72
2023/12/17 04:08:21;;;;;;;39.30;21.02;;;8.60;99.90;;;;;;5093199;28;20034;-72
2023/12/17 04:10:47;;;;;;;37.38;19.92;;;8.60;99.90;;;;;;5093240;28;20107;-72
2023/12/17 04:13:13;;;;;;;37.33;20.45;;;;;;;;;;5093197;28;20499;-72
2023/12/17 04:15:39;;;;;;;35.33;19.70;;;;;;;;;;5093245;28;20108;-72
2023/12/17 04:18:05;;;;;;;35.47;19.65;;;;;;;;;;5093179;28;20039;-72
2023/12/17 04:20:31;;;;;;;35.25;18.85;;;;;;;;;;5096171;28;20079;-71
2023/12/17 04:22:57;;;;;;;39.88;20.30;;;;;;;;;;5096977;28;20032;-72
2023/12/17 04:25:23;;;;;;;37.47;20.40;;;;;;;;;;5096729;28;20024;-72
2023/12/17 04:27:48;;;;;;;36.55;20.58;;;8.70;99.90;;;;;;5096885;28;20020;-72
2023/12/17 04:30:14;;;;;;;35.88;19.70;;;8.70;99.90;;;;;;5096932;28;20031;-71
2023/12/17 04:32:39;;;;;;;34.92;19.48;;;8.60;99.90;;;;;;5096885;28;20024;-72
2023/12/17 04:35:06;;;;;;;37.97;19.42;;;;;;;;;;5096759;28;20110;-72
2023/12/17 04:37:32;;;;;;;33.53;19.48;;;8.60;99.90;;;;;;5096461;28;20494;-71
2023/12/17 04:39:57;;;;;;;35.42;18.83;;;8.50;99.90;;;;;;5096606;28;20143;-72
2023/12/17 04:42:23;;;;;;;34.97;18.77;;;8.60;99.90;;;;;;5096684;28;20058;-71
2023/12/17 04:44:48;;;;;;;30.33;17.83;;;8.60;99.90;;;;;;5096506;28;20136;-72
2023/12/17 04:47:14;;;;;;;32.58;17.60;;;8.60;99.90;;;;;;5096580;28;20020;-71
2023/12/17 04:49:40;;;;;;;29.55;17.42;;;;;;;;;;5096748;28;20031;-71
2023/12/17 04:52:08;;;;;;;39.70;18.23;;;;;;;;;;5096658;28;20546;-71
2023/12/17 04:54:34;;;;;;;30.58;17.55;;;8.70;99.90;;;;;;5096630;28;20038;-71
2023/12/17 04:57:02;;;;;;;30.45;16.92;;;;;;;;;;5096444;28;20108;-71
2023/12/17 04:59:29;;;;;;;34.75;18.63;;;;;;;;;;5096476;28;20024;-72
2023/12/17 05:01:57;;;;;;;29.65;17.60;;;;;;;;;;5096257;28;20024;-72
2023/12/17 05:04:25;;;;;;;28.95;17.00;;;;;;;;;;5096355;28;20032;-71
2023/12/17 05:06:53;;;;;;;32.72;17.30;;;;;;;;;;5095845;28;20032;-72
2023/12/17 05:09:21;;;;;;;27.95;16.95;;;;;;;;;;5096099;28;20032;-72
2023/12/17 05:11:49;;;;;;;30.23;17.25;;;;;;;;;;5096163;28;20389;-72
2023/12/17 05:14:17;;;;;;;29.25;16.73;;;;;;;;;;5095986;28;20473;-71
2023/12/17 05:16:45;;;;;;;27.80;16.30;;;;;;;;;;5096060;28;20024;-72
2023/12/17 05:19:13;;;;;;;31.50;16.75;;;;;;;;;;5095899;28;20032;-72
2023/12/17 05:21:41;;;;;;;30.45;17.05;;;;;;;;;;5095540;28;20024;-72
2023/12/17 05:24:08;;;;;;;32.42;17.05;;;;;;;;;;5095926;28;20046;-72
2023/12/17 05:26:36;;;;;;;28.10;16.75;;;;;;;;;;5095742;28;20497;-73
2023/12/17 05:29:04;;;;;;;26.30;15.80;;;;;;;;;;5095511;28;20038;-73
2023/12/17 05:31:32;;;;;;;28.00;15.70;;;;;;;;;;5095404;28;20028;-72
2023/12/17 05:34:00;;;;;;;28.02;16.55;;;;;;;;;;5095578;28;20026;-72
2023/12/17 05:36:28;;;;;;;24.58;15.13;;;;;;;;;;5095456;28;20040;-72
2023/12/17 05:38:56;;;;;;;25.42;15.77;;;;;;;;;;5095683;28;20024;-72
2023/12/17 05:41:24;;;;;;;28.23;16.98;;;;;;;;;;5095588;28;20034;-72
2023/12/17 05:43:52;;;;;;;28.65;16.63;;;;;;;;;;5095558;28;20032;-72
2023/12/17 05:46:18;;;;;;;25.70;15.65;;;;;;;;;;5095350;28;20025;-73
2023/12/17 05:48:44;;;;;;;26.88;15.95;;;;;;;;;;5095334;28;20036;-72
2023/12/17 05:51:12;;;;;;;27.60;15.35;;;;;;;;;;5095502;28;20016;-72
2023/12/17 05:53:37;;;;;;;26.85;16.55;;;8.70;99.90;;;;;;5095343;28;20024;-72
2023/12/17 05:56:03;;;;;;;27.88;14.80;;;8.70;99.90;;;;;;5095402;28;20050;-72
2023/12/17 05:58:31;;;;;;;28.05;15.63;;;;;;;;;;5095241;28;20020;-72
2023/12/17 06:00:59;;;;;;;23.52;14.65;;;;;;;;;;5094908;28;20040;-72
2023/12/17 06:03:26;;;;;;;24.88;15.57;;;;;;;;;;5095154;28;20401;-71
2023/12/17 06:05:51;;;;;;;25.50;15.43;;;8.70;99.90;;;;;;5094592;28;20493;-72
2023/12/17 06:08:17;;;;;;;23.23;14.15;;;8.70;99.90;;;;;;5095070;28;20111;-72
2023/12/17 06:10:42;;;;;;;21.35;13.25;;;8.70;99.90;;;;;;5095031;28;20032;-72
2023/12/17 06:13:08;;;;;;;22.48;13.55;;;;;;;;;;5094940;28;20028;-72
2023/12/17 06:15:34;;;;;;;23.42;14.75;;;;;;;;;;5094915;28;20445;-72
2023/12/17 06:18:01;;;;;;;22.58;13.85;;;;;;;;;;5094449;28;20039;-71
2023/12/17 06:20:27;;;;;;;23.48;13.00;;;;;;;;;;5094810;28;20065;-72
2023/12/17 06:22:53;;;;;;;21.92;13.50;;;;;;;;;;5094800;28;20475;-71
2023/12/17 06:25:20;;;;;;;20.25;12.50;;;;;;;;;;5094264;28;20470;-72
2023/12/17 06:27:47;;;;;;;23.63;14.18;;;;;;;;;;5094279;28;20047;-72
2023/12/17 06:30:14;;;;;;;20.25;12.52;;;;;;;;;;5094607;28;20500;-71
2023/12/17 06:32:41;;;;;;;20.98;13.48;;;;;;;;;;5094573;28;20031;-72
2023/12/17 06:35:08;;;;;;;22.45;13.02;;;;;;;;;;5094588;28;20026;-72
2023/12/17 06:37:35;;;;;;;22.50;13.77;;;;;;;;;;5094185;28;20090;-72
2023/12/17 06:40:02;;;;;;;20.05;12.55;;;;;;;;;;5094596;28;20059;-72
2023/12/17 06:42:29;;;;;;;19.88;12.15;;;;;;;;;;5093672;28;20067;-72
2023/12/17 06:44:56;;;;;;;19.38;12.38;;;;;;;;;;5094399;28;20485;-72
2023/12/17 06:47:23;;;;;;;21.60;12.35;;;;;;;;;;5093980;28;20070;-72
2023/12/17 06:49:50;;;;;;;19.83;13.00;;;;;;;;;;5093935;28;20032;-73
2023/12/17 06:52:16;;;;;;;22.77;12.50;;;;;;;;;;5094278;28;20460;-72
2023/12/17 06:54:43;;;;;;;18.67;11.18;;;;;;;;;;5094207;28;20024;-72
2023/12/17 06:57:10;;;;;;;19.60;11.50;;;;;;;;;;5094218;28;20531;-72
2023/12/17 06:59:37;;;;;;;18.92;11.45;;;;;;;;;;5094017;28;20069;-72
2023/12/17 07:02:04;;;;;;;18.65;11.35;;;;;;;;;;5094108;28;20067;-72
2023/12/17 07:04:32;;;;;;;19.45;11.52;;;8.60;99.90;;;;;;5093618;28;20060;-73
2023/12/17 07:07:00;;;;;;;20.02;12.32;;;;;;;;;;5093651;28;20504;-73
2023/12/17 07:09:28;;;;;;;21.45;12.07;;;8.60;99.90;;;;;;5093868;28;20118;-72
2023/12/17 07:11:55;;;;;;;17.38;11.38;;;8.60;99.90;;;;;;5093784;28;20486;-72
2023/12/17 07:14:23;;;;;;;18.05;10.38;;;8.60;99.90;;;;;;5093844;28;20028;-73
2023/12/17 07:16:51;;;;;;;17.92;10.95;;;8.60;99.90;;;;;;5093629;28;20028;-72
2023/12/17 07:19:19;;;;;;;18.52;11.15;;;;;;;;;;5093786;28;20051;-72
2023/12/17 07:21:47;;;;;;;17.27;10.85;;;8.60;99.90;;;;;;5093834;28;20032;-72
2023/12/17 07:24:15;;;;;;;20.75;10.95;;;;;;;;;;5093675;28;20458;-72
2023/12/17 07:26:45;;;;;;;18.08;10.82;;;;;;;;;;5093522;28;20049;-72
2023/12/17 07:29:13;;;;;;;16.30;10.25;;;;;;;;;;5093678;28;20020;-72
2023/12/17 07:31:41;;;;;;;16.98;10.70;;;;;;;;;;5093186;28;20024;-73
2023/12/17 07:34:10;;;;;;;15.82;9.70;;;;;;;;;;5093551;28;20497;-72
2023/12/17 07:36:39;;;;;;;16.85;10.20;;;;;;;;;;5093298;28;20089;-72
2023/12/17 07:39:07;;;;;;;16.85;10.30;;;8.60;99.90;;;;;;5093613;28;20056;-72
2023/12/17 07:41:36;;;;;;;16.45;10.13;;;;;;;;;;5093203;28;20546;-72
2023/12/17 07:44:04;;;;;;;17.08;9.77;;;;;;;;;;5093551;28;20511;-72
2023/12/17 07:46:32;;;;;;;15.02;8.93;;;;;;;;;;5093151;28;20148;-72
2023/12/17 07:49:01;;;;;;;15.50;9.88;;;;;;;;;;5093474;28;20036;-72
2023/12/17 07:51:28;;;;;;;19.70;10.15;;;8.60;99.90;;;;;;5093340;28;20473;-72
2023/12/17 07:53:54;;;;;;;16.20;10.02;;;;;;;;;;5095124;28;20028;-72
2023/12/17 07:56:22;;;;;;;16.48;9.85;;;8.50;99.90;;;;;;5097165;28;20032;-72
2023/12/17 07:58:51;;;;;;;18.63;9.95;;;;;;;;;;5097568;28;20024;-72
2023/12/17 08:01:19;;;;;;;14.90;9.20;;;;;;;;;;5097514;28;20024;-72
2023/12/17 08:03:47;;;;;;;14.63;9.73;;;;;;;;;;5097414;28;20042;-72
2023/12/17 08:06:15;;;;;;;14.55;8.75;;;;;;;;;;5097243;28;20490;-72
2023/12/17 08:08:41;;;;;;;13.27;8.88;;;;;;;;;;5097389;28;20036;-72
2023/12/17 08:11:12;;;;;;;17.05;9.65;;;;;;;;;;5097408;28;20024;-72
2023/12/17 08:13:40;;;;;;;15.20;9.15;;;;;;;;;;5097243;28;20358;-72
2023/12/17 08:16:06;;;;;;;17.05;9.88;;;;;;;;;;5097315;28;20016;-73
2023/12/17 08:18:32;;;;;;;17.40;9.60;;;;;;;;;;5097313;28;20151;-72
2023/12/17 08:20:58;;;;;;;17.13;10.02;;;;;;;;;;5097175;28;20052;-72
2023/12/17 08:23:26;;;;;;;16.38;10.07;;;;;;;;;;5097056;28;20033;-72
2023/12/17 08:25:52;;;;;;;14.13;8.82;;;;;;;;;;5096578;28;20043;-72
2023/12/17 08:28:20;;;;;;;16.27;9.60;;;;;;;;;;5096756;28;20032;-72
2023/12/17 08:30:46;;;;;;;12.85;8.48;;;;;;;;;;5096980;28;20052;-72
2023/12/17 08:33:12;;;;;;;14.63;9.18;;;;;;;;;;5096565;28;20016;-72
2023/12/17 08:35:39;;;;;;;12.93;8.48;;;;;;;;;;5096882;28;20153;-72
2023/12/17 08:38:06;;;;;;;16.75;8.52;;;;;;;;;;5096433;28;20085;-72
2023/12/17 08:40:33;;;;;;;13.60;8.50;;;;;;;;;;5097029;28;20035;-73
2023/12/17 08:43:03;;;;;;;11.80;7.35;;;8.50;99.90;;;;;;5096552;28;20102;-73
2023/12/17 08:45:31;;;;;;;11.50;7.72;;;8.50;99.90;;;;;;5096680;28;20036;-71
2023/12/17 08:47:59;;;;;;;12.20;8.38;;;8.50;99.90;;;;;;5096333;28;20148;-72
2023/12/17 08:50:25;;;;;;;12.23;7.93;;;;;;;;;;5096459;28;20059;-73
2023/12/17 08:52:52;;;;;;;11.68;7.75;;;;;;;;;;5096559;28;20032;-72
2023/12/17 08:55:19;;;;;;;13.00;8.23;;;;;;;;;;5096119;28;20020;-72
2023/12/17 08:57:45;;;;;;;9.77;7.45;;;;;;;;;;5096484;28;20497;-72
2023/12/17 09:00:12;;;;;;;13.73;8.38;;;;;;;;;;5096509;28;20465;-72
2023/12/17 09:02:37;;;;;;;9.40;7.28;;;;;;;;;;5096415;28;20115;-72
2023/12/17 09:05:04;;;;;;;11.63;7.35;;;;;;;;;;5095203;28;20486;-72
2023/12/17 09:07:29;;;;;;;8.95;6.90;;;;;;;;;;5096063;28;20070;-72
2023/12/17 09:09:55;;;;;;;11.55;6.90;;;;;;;;;;5095850;28;20020;-72
2023/12/17 09:12:21;;;;;;;9.98;7.07;;;;;;;;;;5096239;28;20028;-70
2023/12/17 09:14:48;;;;;;;9.50;6.80;;;;;;;;;;5096046;28;20038;-72
2023/12/17 09:17:13;;;;;;;10.32;6.75;;;;;;;;;;5096106;28;20035;-72
2023/12/17 09:19:39;;;;;;;10.18;6.53;;;;;;;;;;5096087;28;20023;-71
2023/12/17 09:22:07;;;;;;;9.52;6.68;;;8.20;99.90;;;;;;5096011;28;20024;-72
2023/12/17 09:24:33;;;;;;;9.40;6.10;;;;;;;;;;5096075;28;20024;-72
2023/12/17 09:27:00;;;;;;;8.70;5.90;;;;;;;;;;5095451;28;20043;-72
2023/12/17 09:29:26;;;;;;;8.35;6.35;;;;;;;;;;5095823;28;20482;-72
2023/12/17 09:31:52;;;;;;;6.82;5.50;;;;;;;;;;5095780;28;20030;-72
2023/12/17 09:34:18;;;;;;;7.65;4.97;;;;;;;;;;5095359;28;20032;-72
2023/12/17 09:36:44;;;;;;;6.85;5.15;;;;;;;;;;5095515;28;20052;-72
2023/12/17 09:39:10;;;;;;;7.38;5.47;;;;;;;;;;5095808;28;20390;-73
2023/12/17 09:41:36;;;;;;;7.47;5.45;;;;;;;;;;5095267;28;20115;-72
2023/12/17 09:44:06;;;;;;;5.72;5.13;;;;;;;;;;5095881;28;20466;-72
2023/12/17 09:46:32;;;;;;;6.68;5.28;;;;;;;;;;5095354;28;20070;-73
2023/12/17 09:48:59;;;;;;;8.65;6.25;;;;;;;;;;5095475;28;20020;-73
2023/12/17 09:51:26;;;;;;;7.07;5.55;;;;;;;;;;5095394;28;20027;-73
2023/12/17 09:53:52;;;;;;;8.82;6.53;;;;;;;;;;5095297;28;20508;-73
2023/12/17 09:56:18;;;;;;;8.43;6.32;;;;;;;;;;5095341;28;20036;-72
2023/12/17 09:58:45;;;;;;;7.25;5.80;;;;;;;;;;5095196;28;20028;-72
2023/12/17 10:01:11;;;;;;;7.72;6.55;;;;;;;;;;5095257;28;20036;-73
2023/12/17 10:03:37;;;;;;;8.10;6.43;;;;;;;;;;5095277;28;20086;-73
2023/12/17 10:06:07;;;;;;;9.40;7.03;;;8.20;99.90;;;;;;5095235;28;20066;-73
2023/12/17 10:08:34;;;;;;;8.30;6.75;;;;;;;;;;5094793;28;20032;-72
2023/12/17 10:11:03;;;;;;;9.13;7.18;;;;;;;;;;5094978;28;20065;-72
2023/12/17 10:13:36;;;;;;;11.13;7.68;;;;;;;;;;5094918;28;20031;-72
2023/12/17 10:16:05;;;;;;;9.77;6.95;;;;;;;;;;5094584;28;20473;-72
2023/12/17 10:18:37;;;;;;;9.23;7.13;;;;;;;;;;5094081;28;20522;-72
2023/12/17 10:21:04;;;;;;;10.13;7.22;;;;;;;;;;5094660;28;20028;-73
2023/12/17 10:23:45;;;;;;;11.20;7.82;;;;;;;;;;5094744;28;20024;-71
2023/12/17 10:26:11;;;;;;;10.43;7.72;;;;;;;;;;5094727;28;20024;-71
2023/12/17 10:28:37;;;;;;;10.35;8.02;;;;;;;;;;5094412;28;20036;-71
2023/12/17 10:31:03;;;;;;;11.70;8.10;;;;;;;;;;5094520;28;20377;-72
2023/12/17 10:33:32;;;;;;;10.20;7.80;;;;;;;;;;5094251;28;20024;-73
2023/12/17 10:35:58;;;;;;;10.43;7.55;;;;;;;;;;5094308;28;20031;-72
2023/12/17 10:38:24;;;;;;;10.15;7.40;;;;;;;;;;5094016;28;20378;-72
2023/12/17 10:40:56;;;;;;;9.63;7.75;;;;;;;;;;5094463;28;20088;-72
2023/12/17 10:43:22;;;;;;;8.95;6.88;;;;;;;;;;5094021;28;20059;-73
2023/12/17 10:45:50;;;;;;;12.32;7.93;;;;;;;;;;5094275;28;20456;-72
2023/12/17 10:48:19;;;;;;;10.90;7.97;;;;;;;;;;5094203;28;20032;-72
2023/12/17 10:50:45;;;;;;;10.27;7.55;;;;;;;;;;5093900;28;20044;-73
2023/12/17 10:53:12;;;;;;;9.82;7.13;;;;;;;;;;5094190;28;20028;-72
2023/12/17 10:55:38;;;;;;;8.70;7.10;;;;;;;;;;5094251;28;20043;-72
2023/12/17 10:58:05;;;;;;;9.85;7.80;;;;;;;;;;5094143;28;20024;-72
2023/12/17 11:00:33;;;;;;;11.93;8.32;;;;;;;;;;5094037;28;20028;-72
2023/12/17 11:02:59;;;;;;;14.32;8.95;;;;;;;;;;5094083;28;20037;-72
2023/12/17 11:05:26;;;;;;;12.88;9.48;;;;;;;;;;5094004;28;20070;-73
2023/12/17 11:07:52;;;;;;;12.25;9.18;;;;;;;;;;5093536;28;20055;-73
2023/12/17 11:10:18;;;;;;;14.75;9.18;;;;;;;;;;5093940;28;20024;-73
2023/12/17 11:12:49;;;;;;;14.57;9.80;;;;;;;;;;5093920;28;20024;-72
2023/12/17 11:15:20;;;;;;;14.43;9.98;;;;;;;;;;5093913;28;20489;-72
2023/12/17 11:17:49;;;;;;;15.85;10.68;;;;;;;;;;5093880;28;20031;-72
2023/12/17 11:20:19;;;;;;;17.45;10.70;;;;;;;;;;5093794;28;20063;-72
2023/12/17 11:22:49;;;;;;;19.88;11.30;;;;;;;;;;5093898;28;20060;-72
2023/12/17 11:25:19;;;;;;;18.98;11.73;;;;;;;;;;5093766;28;20035;-72
2023/12/17 11:27:50;;;;;;;21.58;11.93;;;;;;;;;;5093306;28;20568;-73
2023/12/17 11:30:38;;;;;;;19.70;13.10;;;;;;;;;;5093894;28;20022;-73
2023/12/17 11:33:04;;;;;;;22.00;12.82;;;;;;;;;;5093495;28;20470;-72
2023/12/17 11:35:36;;;;;;;23.25;14.02;;;;;;;;;;5093626;28;20035;-73
2023/12/17 11:38:03;;;;;;;21.95;13.75;;;;;;;;;;5093182;28;20405;-73
2023/12/17 11:40:35;;;;;;;23.13;14.40;;;;;;;;;;5093283;28;20067;-73
2023/12/17 11:43:05;;;;;;;25.10;14.13;;;;;;;;;;5093463;28;20055;-73
2023/12/17 11:45:47;;;;;;;26.38;15.00;;;;;;;;;;5093479;28;20523;-73
2023/12/17 11:48:18;;;;;;;29.25;16.10;;;;;;;;;;5093413;28;20055;-72
2023/12/17 11:50:56;;;;;;;27.63;15.20;;;;;;;;;;5093393;28;20089;-72
2023/12/17 11:53:26;;;;;;;25.33;15.88;;;;;;;;;;5093122;28;20058;-72
2023/12/17 11:55:56;;;;;;;28.45;15.93;;;;;;;;;;5093022;28;20036;-72
2023/12/17 11:58:26;;;;;;;29.17;16.55;;;;;;;;;;5093310;28;20032;-72
2023/12/17 12:01:12;;;;;;;29.45;17.17;;;;;;;;;;5093387;28;20063;-72
2023/12/17 12:03:43;;;;;;;28.05;16.42;;;;;;;;;;5093288;28;20056;-73
2023/12/17 12:06:14;;;;;;;30.50;16.85;;;;;;;;;;5093297;28;20040;-72
2023/12/17 12:08:48;;;;;;;29.92;16.77;;;;;;;;;;5092829;28;20067;-72
2023/12/17 12:11:19;;;;;;;27.80;16.90;;;;;;;;;;5093212;28;20561;-72
2023/12/17 12:13:50;;;;;;;32.53;18.15;;;;;;;;;;5093352;28;20089;-72
2023/12/17 12:16:17;;;;;;;31.38;18.30;;;;;;;;;;5093044;28;20474;-72
2023/12/17 12:18:46;;;;;;;32.95;18.05;;;;;;;;;;5093130;28;20100;-73
2023/12/17 12:21:22;;;;;;;32.75;19.15;;;;;;;;;;5092851;28;20040;-72
2023/12/17 12:23:53;;;;;;;32.58;18.25;;;;;;;;;;5092822;28;20020;-73
2023/12/17 12:26:23;;;;;;;29.80;18.17;;;;;;;;;;5092554;28;20119;-72
2023/12/17 12:29:00;;;;;;;27.15;17.02;;;;;;;;;;5092844;28;20038;-72
2023/12/17 12:31:30;;;;;;;32.38;18.05;;;;;;;;;;5092624;28;20081;-72
2023/12/17 12:34:01;;;;;;;26.60;16.90;;;;;;;;;;5092689;28;20115;-72
2023/12/17 12:36:30;;;;;;;25.15;16.08;;;;;;;;;;5092387;28;20469;-73
2023/12/17 12:39:04;;;;;;;24.92;15.50;;;;;;;;;;5092906;28;20432;-73
2023/12/17 12:41:30;;;;;;;29.27;16.45;;;;;;;;;;5095635;28;20027;-72
2023/12/17 12:43:56;;;;;;;24.23;15.68;;;;;;;;;;5096676;28;20031;-72
2023/12/17 12:46:22;;;;;;;25.77;15.98;;;;;;;;;;5096671;28;20032;-72
2023/12/17 12:48:55;;;;;;;21.25;13.73;;;;;;;;;;5096516;28;20032;-72
2023/12/17 12:51:21;;;;;;;23.30;14.57;;;;;;;;;;5096564;28;20454;-72
2023/12/17 12:53:47;;;;;;;23.17;14.50;;;;;;;;;;5096540;28;20020;-72
2023/12/17 12:56:13;;;;;;;23.90;15.48;;;;;;;;;;5096121;28;20020;-72
2023/12/17 12:58:39;;;;;;;24.58;14.50;;;;;;;;;;5096430;28;20035;-72
2023/12/17 13:01:05;;;;;;;24.08;14.57;;;;;;;;;;5096084;28;20043;-72
2023/12/17 13:03:31;;;;;;;21.30;14.07;;;;;;;;;;5096105;28;20036;-73
2023/12/17 13:05:57;;;;;;;26.63;14.77;;;;;;;;;;5095875;28;20028;-72
2023/12/17 13:08:23;;;;;;;23.05;16.02;;;;;;;;;;5095925;28;20111;-72
2023/12/17 13:10:52;;;;;;;22.27;15.32;;;;;;;;;;5095641;28;20173;-72
2023/12/17 13:13:18;;;;;;;24.73;15.60;;;;;;;;;;5095831;28;20077;-72
2023/12/17 13:15:44;;;;;;;25.13;16.05;;;;;;;;;;5095409;28;20091;-73
2023/12/17 13:18:10;;;;;;;23.88;15.20;;;;;;;;;;5095412;28;20110;-72
2023/12/17 13:20:36;;;;;;;28.30;16.90;;;;;;;;;;5095632;28;20032;-72
2023/12/17 13:23:02;;;;;;;27.60;17.75;;;;;;;;;;5095682;28;20111;-72
2023/12/17 13:25:30;;;;;;;28.77;18.75;;;;;;;;;;5095532;28;20055;-72
2023/12/17 13:27:56;;;;;;;28.75;18.10;;;;;;;;;;5095636;28;20111;-72
2023/12/17 13:30:25;;;;;;;31.52;18.92;;;;;;;;;;5095411;28;20177;-72
2023/12/17 13:32:51;;;;;;;31.05;19.98;;;;;;;;;;5095676;28;20020;-72
2023/12/17 13:35:17;;;;;;;29.60;20.02;;;;;;;;;;5095685;28;20028;-72
2023/12/17 13:37:43;;;;;;;31.45;20.23;;;;;;;;;;5095254;28;20410;-72
2023/12/17 13:40:09;;;;;;;28.63;19.95;;;;;;;;;;5095747;28;20032;-72
2023/12/17 13:42:36;;;;;;;32.97;22.38;;;;;;;;;;5095160;28;20039;-73
2023/12/17 13:45:02;;;;;;;33.05;21.27;;;;;;;;;;5095416;28;20501;-73
2023/12/17 13:47:28;;;;;;;33.17;21.45;;;;;;;;;;5095070;28;20133;-72
2023/12/17 13:49:54;;;;;;;35.08;22.50;;;;;;;;;;5095275;28;20032;-72
2023/12/17 13:52:21;;;;;;;37.13;23.55;;;;;;;;;;5095346;28;20406;-72